Time;durP1;ratioP1;P1;durP2;ratioP2;P2;SDS_P1;SDS_P2;PMS_P1;PMS_P2;Temp;Humidity;BMP_temperature;BMP_pressure;BME280_temperature;BME280_humidity;BME280_pressure;Samples;Min_cycle;Max_cycle;Signal;HPM_P1;HPM_P2
2022/07/31 00:01:25;;;;;;;;;;;;;;;17.09;90.82;97733.18;106190;1283;22656;-84
2022/07/31 00:03:51;;;;;;;;;;;;;;;17.06;90.81;97731.48;105939;1283;128232;-85
2022/07/31 00:06:18;;;;;;;;;;;;;;;17.06;91.03;97731.15;106188;1282;25002;-85
2022/07/31 00:08:44;;;;;;;;;;;;;;;17.05;91.17;97732.54;106400;1282;22768;-84
2022/07/31 00:11:10;;;;;;;;;;;;;;;17.04;90.98;97729.42;106016;1282;124624;-85
2022/07/31 00:13:39;;;;;;;;;;;;;;;17.02;91.07;97731.34;106297;1282;24447;-87
2022/07/31 00:16:14;;;;;;;;;;;;;;;17.00;91.03;97730.98;106246;1284;125468;-85
2022/07/31 00:18:40;;;;;;;;;;;;;;;16.96;90.86;97735.36;106204;1282;22806;-85
2022/07/31 00:21:06;;;;;;;;;;;;;;;16.94;91.03;97739.91;106290;1282;23269;-85
2022/07/31 00:23:33;;;;;;;;;;;;;;;16.93;91.24;97739.34;106118;1282;126017;-84
2022/07/31 00:25:59;;;;;;;;;;;;;;;16.92;91.22;97742.65;106280;1282;24264;-84
2022/07/31 00:28:25;;;;;;;;;;;;;;;16.90;91.48;97741.48;105976;1284;124646;-86
2022/07/31 00:30:52;;;;;;;;;;;;;;;16.89;91.41;97745.13;105919;1282;23260;-85
2022/07/31 00:33:18;;;;;;;;;;;;;;;16.88;91.50;97741.45;106084;1282;124925;-85
2022/07/31 00:35:44;;;;;;;;;;;;;;;16.87;91.54;97741.16;106143;1282;22700;-84
2022/07/31 00:38:10;;;;;;;;;;;;;;;16.85;91.83;97738.86;106295;1282;22542;-83
2022/07/31 00:40:44;;;;;;;;;;;;;;;16.83;91.79;97737.73;106168;1282;124474;-82
2022/07/31 00:43:13;;;;;;;;;;;;;;;16.79;91.66;97736.96;106208;1282;22541;-82
2022/07/31 00:45:39;;;;;;;;;;;;;;;16.76;91.85;97734.92;106273;1282;125048;-80
2022/07/31 00:48:05;;;;;;;;;;;;;;;16.76;91.88;97737.02;106377;1282;24267;-82
2022/07/31 00:50:31;;;;;;;;;;;;;;;16.74;91.81;97737.16;105893;1282;26134;-81
2022/07/31 00:53:00;;;;;;;;;;;;;;;16.75;91.79;97734.19;105869;1284;124801;-81
2022/07/31 00:55:26;;;;;;;;;;;;;;;16.77;92.20;97736.61;106408;1282;24224;-81
2022/07/31 00:57:52;;;;;;;;;;;;;;;16.78;92.14;97733.78;106217;1282;125724;-81
2022/07/31 01:00:18;;;;;;;;;;;;;;;16.79;91.92;97739.33;106189;1282;22590;-81
2022/07/31 01:02:45;;;;;;;;;;;;;;;16.78;92.05;97739.45;106244;1282;22563;-81
2022/07/31 01:05:13;;;;;;;;;;;;;;;16.79;91.83;97736.97;106395;1282;124844;-80
2022/07/31 01:07:39;;;;;;;;;;;;;;;16.77;91.72;97736.39;106484;1282;23279;-81
2022/07/31 01:10:08;;;;;;;;;;;;;;;16.77;91.60;97734.70;106522;1282;125074;-82
2022/07/31 01:12:44;;;;;;;;;;;;;;;16.78;91.85;97730.92;106208;1282;23420;-81
2022/07/31 01:15:10;;;;;;;;;;;;;;;16.79;91.98;97727.18;106114;1284;24277;-81
2022/07/31 01:17:37;;;;;;;;;;;;;;;16.82;92.14;97729.92;105652;1284;124628;-81
2022/07/31 01:20:07;;;;;;;;;;;;;;;16.81;91.80;97730.94;106208;1284;22650;-81
2022/07/31 01:22:33;;;;;;;;;;;;;;;16.77;91.66;97729.86;106114;1283;124870;-81
2022/07/31 01:25:18;;;;;;;;;;;;;;;16.75;91.60;97731.11;105754;1284;22636;-81
2022/07/31 01:28:04;;;;;;;;;;;;;;;16.73;91.74;97728.11;105955;1283;124981;-81
2022/07/31 01:30:34;;;;;;;;;;;;;;;16.73;91.81;97728.92;106333;1282;22671;-81
2022/07/31 01:33:03;;;;;;;;;;;;;;;16.73;91.71;97727.79;106100;1283;25307;-82
2022/07/31 01:35:34;;;;;;;;;;;;;;;16.72;91.78;97730.23;106004;1284;124423;-82
2022/07/31 01:38:09;;;;;;;;;;;;;;;16.73;91.84;97724.75;106261;1284;22715;-82
2022/07/31 01:40:47;;;;;;;;;;;;;;;16.77;92.35;97722.31;106254;1284;125590;-81
2022/07/31 01:43:24;;;;;;;;;;;;;;;16.76;91.68;97719.86;106014;1282;25682;-82
2022/07/31 01:45:53;;;;;;;;;;;;;;;16.76;91.67;97719.98;105923;1284;124928;-82
2022/07/31 01:48:19;;;;;;;;;;;;;;;16.76;91.64;97720.27;105970;1284;24273;-82
2022/07/31 01:50:47;;;;;;;;;;;;;;;16.74;91.57;97718.30;106258;1282;24449;-82
2022/07/31 01:53:20;;;;;;;;;;;;;;;16.72;91.37;97716.59;105856;1284;124842;-82
2022/07/31 01:55:49;;;;;;;;;;;;;;;16.71;91.72;97713.70;106260;1284;22599;-81
2022/07/31 01:58:16;;;;;;;;;;;;;;;16.72;92.00;97713.40;105680;1284;124724;-83
2022/07/31 02:00:43;;;;;;;;;;;;;;;16.73;91.81;97708.15;105913;1284;25344;-82
2022/07/31 02:03:10;;;;;;;;;;;;;;;16.73;91.90;97706.94;105955;1284;24560;-82
2022/07/31 02:05:39;;;;;;;;;;;;;;;16.73;92.01;97709.20;106107;1284;22576;-83
2022/07/31 02:08:06;;;;;;;;;;;;;;;16.72;91.84;97705.21;106127;1284;22648;-83
2022/07/31 02:10:34;;;;;;;;;;;;;;;16.70;91.94;97701.45;105846;1284;125036;-81
2022/07/31 02:13:01;;;;;;;;;;;;;;;16.67;91.97;97701.83;106020;1284;22589;-83
2022/07/31 02:15:29;;;;;;;;;;;;;;;16.65;92.20;97697.91;106141;1284;126118;-84
2022/07/31 02:17:56;;;;;;;;;;;;;;;16.64;92.27;97694.80;105993;1284;22566;-81
2022/07/31 02:20:23;;;;;;;;;;;;;;;16.63;92.25;97690.09;106160;1284;22741;-79
2022/07/31 02:22:54;;;;;;;;;;;;;;;16.63;92.49;97690.15;105903;1284;125272;-80
2022/07/31 02:25:20;;;;;;;;;;;;;;;16.63;92.76;97691.63;106141;1284;25382;-81
2022/07/31 02:27:47;;;;;;;;;;;;;;;16.65;92.75;97686.20;105986;1284;124780;-81
2022/07/31 02:30:15;;;;;;;;;;;;;;;16.67;92.75;97683.59;105828;1285;22582;-81
2022/07/31 02:32:43;;;;;;;;;;;;;;;16.68;92.55;97683.63;106109;1284;22538;-80
2022/07/31 02:35:12;;;;;;;;;;;;;;;16.65;92.55;97680.25;106076;1284;125173;-82
2022/07/31 02:37:38;;;;;;;;;;;;;;;16.64;92.85;97682.21;105855;1284;24295;-83
2022/07/31 02:40:06;;;;;;;;;;;;;;;16.64;92.88;97679.75;105643;1284;125270;-81
2022/07/31 02:42:33;;;;;;;;;;;;;;;16.64;92.96;97674.30;106081;1284;22599;-81
2022/07/31 02:45:00;;;;;;;;;;;;;;;16.62;92.84;97673.71;105856;1284;22640;-81
2022/07/31 02:47:27;;;;;;;;;;;;;;;16.61;92.94;97669.16;105920;1284;124880;-81
2022/07/31 02:49:56;;;;;;;;;;;;;;;16.61;93.02;97676.48;105915;1284;23454;-80
2022/07/31 02:52:23;;;;;;;;;;;;;;;16.61;93.15;97670.27;105929;1287;124850;-79
2022/07/31 02:54:51;;;;;;;;;;;;;;;16.61;93.23;97675.73;105773;1284;24365;-80
2022/07/31 02:57:18;;;;;;;;;;;;;;;16.61;93.23;97678.58;106252;1284;124916;-80
2022/07/31 02:59:44;;;;;;;;;;;;;;;16.60;93.28;97681.27;105412;1285;25959;-80
2022/07/31 03:02:11;;;;;;;;;;;;;;;16.60;93.46;97675.30;105912;1284;22528;-79
2022/07/31 03:04:40;;;;;;;;;;;;;;;16.60;93.42;97676.83;105823;1284;124910;-80
2022/07/31 03:07:08;;;;;;;;;;;;;;;16.62;93.53;97676.97;105984;1284;25251;-79
2022/07/31 03:09:35;;;;;;;;;;;;;;;16.64;93.81;97676.77;105680;1284;124858;-81
2022/07/31 03:12:20;;;;;;;;;;;;;;;16.64;93.59;97673.73;105816;1284;22549;-79
2022/07/31 03:14:47;;;;;;;;;;;;;;;16.65;93.76;97672.62;105958;1284;25366;-79
2022/07/31 03:17:15;;;;;;;;;;;;;;;16.65;93.60;97669.59;105937;1284;125169;-80
2022/07/31 03:19:41;;;;;;;;;;;;;;;16.68;93.80;97668.00;105728;1284;22573;-80
2022/07/31 03:22:08;;;;;;;;;;;;;;;16.68;93.50;97666.52;105807;1284;125975;-79
2022/07/31 03:24:35;;;;;;;;;;;;;;;16.69;93.55;97666.33;105804;1284;22569;-79
2022/07/31 03:27:01;;;;;;;;;;;;;;;16.70;93.82;97662.02;105755;1284;22559;-79
2022/07/31 03:29:35;;;;;;;;;;;;;;;16.74;93.97;97658.92;105808;1284;125521;-79
2022/07/31 03:32:05;;;;;;;;;;;;;;;16.76;93.64;97655.02;105761;1284;25415;-79
2022/07/31 03:34:32;;;;;;;;;;;;;;;16.78;93.82;97653.02;105673;1284;126884;-79
2022/07/31 03:36:58;;;;;;;;;;;;;;;16.80;93.63;97652.81;105876;1284;25267;-79
2022/07/31 03:39:24;;;;;;;;;;;;;;;16.81;93.59;97651.52;105671;1284;125881;-79
2022/07/31 03:41:54;;;;;;;;;;;;;;;16.80;93.46;97652.54;105858;1284;24290;-79
2022/07/31 03:44:21;;;;;;;;;;;;;;;16.80;93.34;97651.44;105876;1284;25340;-79
2022/07/31 03:46:47;;;;;;;;;;;;;;;16.81;93.55;97650.14;106169;1284;124674;-79
2022/07/31 03:49:13;;;;;;;;;;;;;;;16.83;93.56;97648.42;105839;1284;22570;-79
2022/07/31 03:51:40;;;;;;;;;;;;;;;16.86;93.42;97651.36;106027;1284;124954;-79
2022/07/31 03:54:06;;;;;;;;;;;;;;;16.86;93.27;97653.21;105861;1285;22730;-80
2022/07/31 03:56:54;;;;;;;;;;;;;;;16.88;93.23;97650.30;105764;1284;22576;-80
2022/07/31 03:59:21;;;;;;;;;;;;;;;16.89;93.28;97650.61;105862;1282;124718;-80
2022/07/31 04:01:48;;;;;;;;;;;;;;;16.90;93.12;97653.08;105946;1282;25349;-80
2022/07/31 04:04:19;;;;;;;;;;;;;;;16.90;93.10;97654.67;105715;1284;125227;-79
2022/07/31 04:06:56;;;;;;;;;;;;;;;16.93;93.05;97658.95;105677;1282;25237;-80
2022/07/31 04:09:22;;;;;;;;;;;;;;;16.92;92.65;97658.89;105792;1284;124771;-80
2022/07/31 04:11:51;;;;;;;;;;;;;;;16.88;92.25;97660.48;105979;1283;24434;-80
2022/07/31 04:14:18;;;;;;;;;;;;;;;16.84;91.79;97660.84;105962;1284;25411;-80
2022/07/31 04:16:44;;;;;;;;;;;;;;;16.79;91.63;97663.77;106199;1282;124923;-81
2022/07/31 04:19:10;;;;;;;;;;;;;;;16.77;91.70;97662.61;105913;1284;26908;-80
2022/07/31 04:21:36;;;;;;;;;;;;;;;16.77;91.94;97662.98;106046;1282;124837;-80
2022/07/31 04:24:04;;;;;;;;;;;;;;;16.76;91.98;97665.38;106001;1284;23422;-80
2022/07/31 04:26:49;;;;;;;;;;;;;;;16.76;91.85;97667.52;106243;1282;25543;-80
2022/07/31 04:29:16;;;;;;;;;;;;;;;16.75;91.94;97670.23;105942;1282;125507;-81
2022/07/31 04:31:43;;;;;;;;;;;;;;;16.75;92.07;97672.48;106256;1282;25284;-80
2022/07/31 04:34:12;;;;;;;;;;;;;;;16.73;91.68;97675.98;106314;1283;125325;-81
2022/07/31 04:36:38;;;;;;;;;;;;;;;16.72;91.46;97677.65;105993;1284;24308;-82
2022/07/31 04:39:05;;;;;;;;;;;;;;;16.68;91.10;97683.28;106357;1282;22858;-80
2022/07/31 04:41:31;;;;;;;;;;;;;;;16.62;90.93;97691.36;106689;1282;124668;-81
2022/07/31 04:43:58;;;;;;;;;;;;;;;16.56;90.66;97694.77;105863;1284;25697;-81
2022/07/31 04:46:25;;;;;;;;;;;;;;;16.50;91.00;97695.30;105805;1282;124700;-80
2022/07/31 04:48:55;;;;;;;;;;;;;;;16.49;91.09;97693.91;106079;1282;30559;-84
2022/07/31 04:51:22;;;;;;;;;;;;;;;16.49;91.05;97699.90;105921;1282;124869;-81
2022/07/31 04:53:51;;;;;;;;;;;;;;;16.50;90.87;97699.61;105809;1284;22632;-81
2022/07/31 04:56:36;;;;;;;;;;;;;;;16.51;91.05;97701.52;106146;1282;22553;-81
2022/07/31 04:59:04;;;;;;;;;;;;;;;16.55;91.13;97704.58;105873;1282;124330;-81
2022/07/31 05:01:30;;;;;;;;;;;;;;;16.56;91.04;97712.31;105956;1282;22999;-81
2022/07/31 05:03:57;;;;;;;;;;;;;;;16.54;90.78;97713.77;105930;1283;124950;-82
2022/07/31 05:06:33;;;;;;;;;;;;;;;16.53;90.81;97717.83;106237;1282;24273;-82
2022/07/31 05:08:59;;;;;;;;;;;;;;;16.50;90.62;97719.45;106416;1282;24387;-82
2022/07/31 05:11:28;;;;;;;;;;;;;;;16.50;90.57;97722.31;106739;1284;125705;-83
2022/07/31 05:13:56;;;;;;;;;;;;;;;16.52;90.84;97727.66;107174;1282;24364;-83
2022/07/31 05:16:23;;;;;;;;;;;;;;;16.54;91.14;97727.31;106044;1282;124665;-82
2022/07/31 05:18:50;;;;;;;;;;;;;;;16.56;91.14;97729.91;106027;1282;22574;-82
2022/07/31 05:21:34;;;;;;;;;;;;;;;16.60;91.00;97732.42;105783;1282;125273;-82
2022/07/31 05:24:21;;;;;;;;;;;;;;;16.59;90.63;97733.48;105986;1282;22561;-82
2022/07/31 05:26:56;;;;;;;;;;;;;;;16.60;90.88;97735.83;106118;1282;25498;-82
2022/07/31 05:29:22;;;;;;;;;;;;;;;16.62;91.29;97739.25;105902;1284;124516;-82
2022/07/31 05:31:50;;;;;;;;;;;;;;;16.62;90.95;97743.04;106056;1282;24269;-82
2022/07/31 05:34:16;;;;;;;;;;;;;;;16.64;91.06;97743.52;106295;1282;124811;-82
2022/07/31 05:36:43;;;;;;;;;;;;;;;16.65;90.66;97741.19;106459;1284;24270;-82
2022/07/31 05:39:11;;;;;;;;;;;;;;;16.66;90.31;97740.23;106424;1282;24306;-82
2022/07/31 05:41:40;;;;;;;;;;;;;;;16.67;90.46;97741.09;106615;1282;22623;-82
2022/07/31 05:44:33;;;;;;;;;;;;;;;16.67;90.33;97742.89;105927;1283;22570;-80
2022/07/31 05:46:59;;;;;;;;;;;;;;;16.66;90.13;97743.80;106266;1283;124431;-81
2022/07/31 05:49:27;;;;;;;;;;;;;;;16.63;89.93;97749.52;106326;1284;22565;-81
2022/07/31 05:51:55;;;;;;;;;;;;;;;16.60;90.06;97748.80;106600;1284;124962;-81
2022/07/31 05:54:21;;;;;;;;;;;;;;;16.57;90.01;97750.12;106600;1284;24306;-82
2022/07/31 05:57:25;;;;;;;;;;;;;;;16.56;90.04;97752.05;105514;1287;125111;-81
2022/07/31 05:59:52;;;;;;;;;;;;;;;16.57;89.95;97749.95;105487;1288;22539;-81
2022/07/31 06:02:19;;;;;;;;;;;;;;;16.59;90.21;97750.80;105994;1287;22633;-80
2022/07/31 06:04:57;;;;;;;;;;;;;;;16.58;89.71;97754.44;105696;1287;124491;-80
2022/07/31 06:07:23;;;;;;;;;;;;;;;16.57;89.85;97757.44;105588;1286;25312;-79
2022/07/31 06:09:50;;;;;;;;;;;;;;;16.55;89.93;97756.15;105788;1287;124693;-80
2022/07/31 06:12:16;;;;;;;;;;;;;;;16.55;90.05;97757.04;105684;1287;24398;-79
2022/07/31 06:14:42;;;;;;;;;;;;;;;16.56;90.31;97755.63;106229;1287;22627;-79
2022/07/31 06:17:14;;;;;;;;;;;;;;;16.60;90.43;97758.54;105604;1288;125296;-80
2022/07/31 06:19:41;;;;;;;;;;;;;;;16.62;90.31;97755.08;105348;1286;23807;-79
2022/07/31 06:22:07;;;;;;;;;;;;;;;16.66;90.47;97755.95;105466;1289;125137;-80
2022/07/31 06:24:33;;;;;;;;;;;;;;;16.68;89.90;97757.30;105446;1287;25438;-80
2022/07/31 06:27:00;;;;;;;;;;;;;;;16.69;90.18;97758.92;105394;1284;22552;-81
2022/07/31 06:29:28;;;;;;;;;;;;;;;16.71;90.03;97758.02;105877;1282;125006;-81
2022/07/31 06:31:55;;;;;;;;;;;;;;;16.69;89.86;97759.36;105930;1284;22599;-82
2022/07/31 06:34:22;;;;;;;;;;;;;;;16.67;89.82;97759.84;106374;1284;124448;-82
2022/07/31 06:36:48;;;;;;;;;;;;;;;16.67;89.94;97762.80;106235;1282;22537;-82
2022/07/31 06:39:17;;;;;;;;;;;;;;;16.66;89.95;97760.52;106065;1282;124520;-82
2022/07/31 06:42:02;;;;;;;;;;;;;;;16.68;90.11;97763.19;106130;1282;23382;-81
2022/07/31 06:44:28;;;;;;;;;;;;;;;16.68;90.07;97765.06;105902;1282;22809;-81
2022/07/31 06:47:15;;;;;;;;;;;;;;;16.70;90.63;97765.61;106137;1282;125263;-82
2022/07/31 06:50:00;;;;;;;;;;;;;;;16.73;90.33;97765.96;106302;1280;22698;-81
2022/07/31 06:52:28;;;;;;;;;;;;;;;16.74;90.44;97770.00;105796;1283;125172;-81
2022/07/31 06:54:54;;;;;;;;;;;;;;;16.74;89.80;97771.38;106291;1282;22562;-76
2022/07/31 06:57:20;;;;;;;;;;;;;;;16.72;90.37;97771.69;105899;1282;124552;-78
2022/07/31 06:59:47;;;;;;;;;;;;;;;16.71;90.07;97777.20;105875;1282;22721;-78
2022/07/31 07:02:13;;;;;;;;;;;;;;;16.68;89.80;97774.52;105817;1284;24274;-77
2022/07/31 07:04:39;;;;;;;;;;;;;;;16.65;90.01;97778.02;105745;1284;125412;-75
2022/07/31 07:07:06;;;;;;;;;;;;;;;16.67;90.13;97776.23;105660;1282;22665;-76
2022/07/31 07:09:32;;;;;;;;;;;;;;;16.65;89.97;97776.15;105393;1284;124845;-80
2022/07/31 07:11:58;;;;;;;;;;;;;;;16.64;89.73;97779.80;106144;1282;22560;-80
2022/07/31 07:14:25;;;;;;;;;;;;;;;16.62;90.08;97782.02;106304;1282;22554;-76
2022/07/31 07:16:51;;;;;;;;;;;;;;;16.63;90.06;97784.88;105719;1282;124788;-79
2022/07/31 07:19:18;;;;;;;;;;;;;;;16.61;89.61;97785.84;106119;1282;25382;-80
2022/07/31 07:21:44;;;;;;;;;;;;;;;16.58;89.48;97786.77;107609;1284;124960;-80
2022/07/31 07:24:10;;;;;;;;;;;;;;;16.56;89.23;97786.64;105951;1283;22593;-84
2022/07/31 07:26:43;;;;;;;;;;;;;;;16.50;88.25;97788.51;106223;1284;24330;-79
2022/07/31 07:29:09;;;;;;;;;;;;;;;16.43;88.51;97791.80;106075;1282;124184;-79
2022/07/31 07:31:36;;;;;;;;;;;;;;;16.37;88.20;97792.07;105271;1284;22845;-82
2022/07/31 07:34:04;;;;;;;;;;;;;;;16.30;88.29;97794.54;105548;1282;125181;-89
2022/07/31 07:36:32;;;;;;;;;;;;;;;16.26;88.41;97794.92;105389;1284;22573;-85
2022/07/31 07:39:03;;;;;;;;;;;;;;;16.25;88.70;97799.65;105892;1282;25445;-83
2022/07/31 07:41:31;;;;;;;;;;;;;;;16.25;88.59;97801.98;105628;1282;124764;-78
2022/07/31 07:43:58;;;;;;;;;;;;;;;16.22;88.54;97804.48;105956;1282;22550;-78
2022/07/31 07:46:26;;;;;;;;;;;;;;;16.21;88.63;97806.15;108023;1281;124856;-78
2022/07/31 07:48:55;;;;;;;;;;;;;;;16.18;88.57;97805.27;108540;1282;22533;-83
2022/07/31 07:51:44;;;;;;;;;;;;;;;16.15;88.66;97811.52;105201;1282;124889;-80
2022/07/31 07:54:29;;;;;;;;;;;;;;;16.13;88.85;97811.94;105630;1282;25489;-80
2022/07/31 07:57:08;;;;;;;;;;;;;;;16.12;88.89;97815.69;105925;1282;25306;-79
2022/07/31 07:59:53;;;;;;;;;;;;;;;16.11;88.90;97819.92;105773;1282;22566;-79
2022/07/31 08:02:48;;;;;;;;;;;;;;;16.12;89.19;97823.92;105700;1284;29891;-78
2022/07/31 08:05:15;;;;;;;;;;;;;;;16.11;89.02;97822.67;105554;1284;124771;-79
2022/07/31 08:07:42;;;;;;;;;;;;;;;16.11;89.14;97823.60;105559;1284;22618;-78
2022/07/31 08:10:21;;;;;;;;;;;;;;;16.13;89.29;97828.20;105830;1283;125083;-79
2022/07/31 08:13:11;;;;;;;;;;;;;;;16.15;89.12;97827.52;105958;1284;30210;-79
2022/07/31 08:15:56;;;;;;;;;;;;;;;16.12;88.83;97835.90;106193;1284;124382;-78
2022/07/31 08:18:30;;;;;;;;;;;;;;;16.12;89.16;97838.48;106026;1282;25467;-79
2022/07/31 08:20:56;;;;;;;;;;;;;;;16.10;88.53;97841.20;106213;1282;22624;-79
2022/07/31 08:23:22;;;;;;;;;;;;;;;16.09;88.77;97844.95;105900;1284;124867;-79
2022/07/31 08:25:49;;;;;;;;;;;;;;;16.07;88.90;97840.42;106263;1282;24739;-78
2022/07/31 08:28:15;;;;;;;;;;;;;;;16.08;88.93;97846.40;106227;1282;124908;-79
2022/07/31 08:30:41;;;;;;;;;;;;;;;16.08;88.61;97847.70;106046;1283;22894;-79
2022/07/31 08:33:09;;;;;;;;;;;;;;;16.07;88.87;97847.84;105980;1282;24233;-79
2022/07/31 08:35:42;;;;;;;;;;;;;;;16.07;88.77;97852.23;106045;1282;22545;-79
2022/07/31 08:38:08;;;;;;;;;;;;;;;16.09;88.82;97852.52;105865;1283;22694;-79
2022/07/31 08:40:42;;;;;;;;;;;;;;;16.10;89.28;97854.00;105448;1282;124417;-79
2022/07/31 08:43:08;;;;;;;;;;;;;;;16.14;89.47;97856.43;105684;1284;24327;-79
2022/07/31 08:45:39;;;;;;;;;;;;;;;16.15;89.20;97851.13;105668;1282;125045;-79
2022/07/31 08:48:13;;;;;;;;;;;;;;;16.17;89.03;97854.95;105712;1282;24445;-79
2022/07/31 08:50:45;;;;;;;;;;;;;;;16.21;88.82;97855.40;105741;1282;24139;-79
2022/07/31 08:53:29;;;;;;;;;;;;;;;16.21;88.81;97857.14;105486;1282;125145;-79
2022/07/31 08:56:04;;;;;;;;;;;;;;;16.24;89.21;97854.14;105570;1282;25191;-79
2022/07/31 08:58:30;;;;;;;;;;;;;;;16.28;88.98;97853.20;105671;1284;124898;-80
2022/07/31 09:00:56;;;;;;;;;;;;;;;16.28;88.23;97854.79;105916;1282;25329;-79
2022/07/31 09:03:22;;;;;;;;;;;;;;;16.29;88.48;97859.62;105604;1282;125000;-80
2022/07/31 09:05:53;;;;;;;;;;;;;;;16.28;88.64;97861.01;106126;1284;25329;-80
2022/07/31 09:08:19;;;;;;;;;;;;;;;16.31;88.97;97861.45;105758;1282;25328;-80
2022/07/31 09:10:47;;;;;;;;;;;;;;;16.34;88.96;97865.70;105730;1282;124626;-80
2022/07/31 09:13:15;;;;;;;;;;;;;;;16.42;89.24;97865.14;105779;1282;25379;-79
2022/07/31 09:15:41;;;;;;;;;;;;;;;16.44;88.50;97865.20;105665;1282;124994;-80
2022/07/31 09:18:14;;;;;;;;;;;;;;;16.46;88.88;97868.15;105637;1282;24679;-80
2022/07/31 09:20:45;;;;;;;;;;;;;;;16.54;89.12;97863.37;105936;1282;22633;-80
2022/07/31 09:23:11;;;;;;;;;;;;;;;16.62;89.17;97863.89;105657;1284;124615;-80
2022/07/31 09:25:49;;;;;;;;;;;;;;;16.67;88.85;97866.63;105851;1282;22569;-80
2022/07/31 09:28:15;;;;;;;;;;;;;;;16.67;87.57;97863.09;105725;1282;124342;-81
2022/07/31 09:30:52;;;;;;;;;;;;;;;16.65;87.76;97871.55;105846;1282;22565;-79
2022/07/31 09:33:38;;;;;;;;;;;;;;;16.65;88.04;97866.98;105700;1282;125080;-80
2022/07/31 09:36:23;;;;;;;;;;;;;;;16.65;87.49;97865.35;105872;1284;22576;-79
2022/07/31 09:38:55;;;;;;;;;;;;;;;16.64;87.18;97865.14;105827;1282;23982;-80
2022/07/31 09:41:30;;;;;;;;;;;;;;;16.65;87.43;97870.89;105883;1282;124484;-80
2022/07/31 09:43:59;;;;;;;;;;;;;;;16.67;87.49;97870.98;105823;1282;24298;-80
2022/07/31 09:46:26;;;;;;;;;;;;;;;16.68;86.94;97871.73;105767;1284;124784;-80
2022/07/31 09:48:54;;;;;;;;;;;;;;;16.66;86.45;97871.04;105670;1284;25266;-80
2022/07/31 09:51:21;;;;;;;;;;;;;;;16.67;86.56;97870.52;105760;1282;124621;-80
2022/07/31 09:53:52;;;;;;;;;;;;;;;16.65;86.31;97874.89;105795;1282;23311;-80
2022/07/31 09:56:36;;;;;;;;;;;;;;;16.64;86.72;97877.89;106172;1282;24207;-81
2022/07/31 09:59:05;;;;;;;;;;;;;;;16.61;86.70;97885.18;105760;1284;125200;-80
2022/07/31 10:01:32;;;;;;;;;;;;;;;16.60;87.05;97884.31;105954;1282;24405;-80
2022/07/31 10:03:59;;;;;;;;;;;;;;;16.61;87.05;97886.84;105968;1282;124975;-79
2022/07/31 10:06:26;;;;;;;;;;;;;;;16.59;86.63;97890.28;106117;1282;23939;-80
2022/07/31 10:08:54;;;;;;;;;;;;;;;16.54;86.51;97890.52;105862;1282;25262;-79
2022/07/31 10:11:47;;;;;;;;;;;;;;;16.46;86.92;97895.31;105733;1282;25371;-80
2022/07/31 10:14:20;;;;;;;;;;;;;;;16.43;87.39;97894.80;105814;1281;24147;-80
2022/07/31 10:16:47;;;;;;;;;;;;;;;16.40;87.33;97896.60;105933;1282;124812;-80
2022/07/31 10:19:35;;;;;;;;;;;;;;;16.40;87.92;97897.70;105870;1282;25352;-79
2022/07/31 10:22:26;;;;;;;;;;;;;;;16.41;87.88;97903.73;105882;1282;124730;-78
2022/07/31 10:24:54;;;;;;;;;;;;;;;16.44;88.22;97903.09;105765;1282;22549;-78
2022/07/31 10:27:20;;;;;;;;;;;;;;;16.45;88.04;97901.27;105569;1282;125478;-78
2022/07/31 10:29:57;;;;;;;;;;;;;;;16.44;87.76;97902.31;106037;1282;25366;-79
2022/07/31 10:32:23;;;;;;;;;;;;;;;16.45;88.01;97905.31;106353;1282;22560;-79
2022/07/31 10:35:19;;;;;;;;;;;;;;;16.45;87.99;97903.79;105824;1285;125456;-80
2022/07/31 10:38:14;;;;;;;;;;;;;;;16.44;88.21;97909.02;105430;1284;22567;-79
2022/07/31 10:40:56;;;;;;;;;;;;;;;16.44;87.98;97914.02;105826;1283;125085;-79
2022/07/31 10:43:27;;;;;;;;;;;;;;;16.42;87.91;97917.19;105584;1282;22576;-79
2022/07/31 10:46:07;;;;;;;;;;;;;;;16.40;87.84;97920.36;106091;1284;124672;-79
2022/07/31 10:49:03;;;;;;;;;;;;;;;16.40;88.16;97920.91;106108;1282;22700;-79
2022/07/31 10:51:52;;;;;;;;;;;;;;;16.40;88.18;97918.82;106678;1282;126151;-80
2022/07/31 10:54:42;;;;;;;;;;;;;;;16.39;87.89;97925.64;106598;1282;22628;-79
2022/07/31 10:57:28;;;;;;;;;;;;;;;16.37;88.06;97927.33;106137;1283;126330;-79
2022/07/31 11:00:16;;;;;;;;;;;;;;;16.35;88.25;97925.81;106013;1284;22554;-79
2022/07/31 11:03:15;;;;;;;;;;;;;;;16.34;88.17;97930.77;106230;1284;25262;-79
2022/07/31 11:06:00;;;;;;;;;;;;;;;16.32;88.01;97928.82;106099;1282;22538;-79
2022/07/31 11:09:01;;;;;;;;;;;;;;;16.27;87.88;97932.73;106301;1289;24221;-79
2022/07/31 11:11:54;;;;;;;;;;;;;;;16.23;87.85;97934.86;106303;1282;24381;-79
2022/07/31 11:14:49;;;;;;;;;;;;;;;16.14;87.78;97931.30;106080;1284;22625;-78
2022/07/31 11:17:32;;;;;;;;;;;;;;;16.07;87.92;97933.27;106316;1284;124611;-79
2022/07/31 11:20:19;;;;;;;;;;;;;;;16.00;87.95;97937.96;106617;1284;24109;-79
2022/07/31 11:23:05;;;;;;;;;;;;;;;15.98;88.54;97936.34;106488;1284;125093;-78
2022/07/31 11:25:33;;;;;;;;;;;;;;;16.00;88.81;97936.31;106470;1282;22587;-79
2022/07/31 11:28:08;;;;;;;;;;;;;;;16.03;89.08;97942.77;106935;1282;124852;-79
2022/07/31 11:30:46;;;;;;;;;;;;;;;16.05;89.11;97942.73;106295;1282;24292;-78
2022/07/31 11:33:12;;;;;;;;;;;;;;;16.07;89.38;97941.22;106828;1281;22542;-79
2022/07/31 11:35:38;;;;;;;;;;;;;;;16.11;89.28;97946.78;106157;1282;124551;-78
2022/07/31 11:38:04;;;;;;;;;;;;;;;16.12;89.12;97940.77;106672;1282;22610;-78
2022/07/31 11:40:30;;;;;;;;;;;;;;;16.16;89.26;97939.48;106405;1281;125229;-79
2022/07/31 11:42:57;;;;;;;;;;;;;;;16.18;89.07;97937.74;106366;1282;24255;-78
2022/07/31 11:45:23;;;;;;;;;;;;;;;16.22;89.19;97938.45;105822;1282;124824;-78
2022/07/31 11:47:54;;;;;;;;;;;;;;;16.27;89.57;97940.20;105970;1282;22613;-78
2022/07/31 11:50:21;;;;;;;;;;;;;;;16.31;89.28;97944.71;106335;1282;22573;-80
2022/07/31 11:52:47;;;;;;;;;;;;;;;16.33;89.48;97945.95;106480;1281;124777;-78
2022/07/31 11:55:14;;;;;;;;;;;;;;;16.34;89.10;97939.78;106360;1282;345781;-78
2022/07/31 11:57:41;;;;;;;;;;;;;;;16.34;89.07;97942.91;105781;1282;125228;-77
2022/07/31 12:00:13;;;;;;;;;;;;;;;16.32;88.70;97939.52;105992;1282;23044;-78
2022/07/31 12:02:43;;;;;;;;;;;;;;;16.28;88.38;97942.01;105799;1283;26139;-78
2022/07/31 12:05:12;;;;;;;;;;;;;;;16.27;88.71;97942.46;106248;1281;124921;-79
2022/07/31 12:07:41;;;;;;;;;;;;;;;16.28;89.00;97940.41;108521;1281;22546;-79
2022/07/31 12:10:11;;;;;;;;;;;;;;;16.29;88.96;97942.39;106195;1282;125216;-79
2022/07/31 12:12:38;;;;;;;;;;;;;;;16.31;89.06;97944.48;106647;1282;23301;-79
2022/07/31 12:15:18;;;;;;;;;;;;;;;16.33;89.17;97946.27;106383;1281;23513;-79
2022/07/31 12:17:45;;;;;;;;;;;;;;;16.37;88.86;97949.36;106769;1281;23262;-79
2022/07/31 12:20:11;;;;;;;;;;;;;;;16.38;88.65;97953.64;106581;1282;24091;-80
2022/07/31 12:22:38;;;;;;;;;;;;;;;16.38;88.47;97953.02;106052;1281;124799;-79
2022/07/31 12:25:08;;;;;;;;;;;;;;;16.41;88.71;97953.77;106217;1281;22705;-79
2022/07/31 12:27:35;;;;;;;;;;;;;;;16.45;88.85;97955.46;106351;1282;124816;-79
2022/07/31 12:30:24;;;;;;;;;;;;;;;16.49;89.04;97957.21;105632;1282;24333;-79
2022/07/31 12:32:50;;;;;;;;;;;;;;;16.52;88.53;97961.31;105652;1282;22677;-80
2022/07/31 12:35:16;;;;;;;;;;;;;;;16.51;88.12;97960.55;105940;1281;124492;-78
2022/07/31 12:37:47;;;;;;;;;;;;;;;16.51;88.30;97960.16;106298;1280;22547;-78
2022/07/31 12:40:23;;;;;;;;;;;;;;;16.48;88.55;97956.95;106474;1282;124885;-80
2022/07/31 12:42:50;;;;;;;;;;;;;;;16.53;88.45;97959.48;106261;1281;22539;-80
2022/07/31 12:45:26;;;;;;;;;;;;;;;16.56;88.98;97958.27;105928;1282;124882;-81
2022/07/31 12:47:53;;;;;;;;;;;;;;;16.59;88.86;97956.70;106337;1282;24219;-80
2022/07/31 12:50:20;;;;;;;;;;;;;;;16.60;88.76;97960.70;106871;1282;22638;-80
2022/07/31 12:52:46;;;;;;;;;;;;;;;16.60;88.93;97958.02;106188;1282;125606;-80